Terminal Aerodrome Forecast
Issued by NWS

Current Version | Previous Version | Text Only | Print | Product List | Glossary On
Versions: 1 2 3 4 5 6 7 8 9 10 11 12 13 14 15 16 17
000
FTUS43 KMQT 140500
TAFCMX
TAF
KCMX 140525Z 1406/1506 29008KT P6SM VCSH BKN070
     FM141000 28008KT P6SM VCSH SCT025 BKN040
      TEMPO 1410/1414 5SM -SHRA BKN025
     FM141400 29013KT P6SM SCT025 BKN040
     FM150100 32007KT P6SM VCSH BKN025=

USA.gov is the U.S. government's official web portal to all federal, state and local government web resources and services.